This is the latest recevied weather packets stored in our database for station/object KD0SBN. If no packets are shown the sender has not sent any weather packets the latest 10 day(s).
| Time | Temp. | Humidity | Pressure | Rain* | Wind** | Luminosity | Snow |
|---|---|---|---|---|---|---|---|
| 1777896745 | 16.11° C | 36% | 1009.7 hPa | 0 mm | - | - | - |
| 1777896442 | 16.11° C | 35% | 1009.8 hPa | 0 mm | - | - | - |
| 1777896140 | 16.11° C | 34% | 1009.7 hPa | 0 mm | - | - | - |
| 1777895837 | 16.67° C | 34% | 1009.8 hPa | 0 mm | - | - | - |
| 1777895534 | 16.67° C | 33% | 1009.8 hPa | 0 mm | - | - | - |
| 1777895232 | 16.67° C | 34% | 1009.5 hPa | 0 mm | - | - | - |
| 1777894930 | 15.56° C | 35% | 1009.9 hPa | 0 mm | - | - | - |
| 1777894627 | 15° C | 36% | 1009.7 hPa | 0 mm | - | - | - |
| 1777894324 | 15° C | 37% | 1009.4 hPa | 0 mm | - | - | - |
| 1777894021 | 13.89° C | 38% | 1009.8 hPa | 0 mm | - | - | - |
| 1777893717 | 12.78° C | 45% | 1010 hPa | 0 mm | - | - | - |
| 1777893414 | 13.89° C | 41% | 1010.1 hPa | 0 mm | - | - | - |
| 1777893109 | 13.89° C | 39% | 1009.9 hPa | 0 mm | - | - | - |
| 1777892807 | 13.33° C | 41% | 1010.1 hPa | 0 mm | - | - | - |
| 1777892503 | 12.78° C | 45% | 1010.4 hPa | 0 mm | - | - | - |
| 1777892198 | 11.67° C | 46% | 1009.9 hPa | 0 mm | - | - | - |
| 1777891896 | 11.11° C | 47% | 1009.8 hPa | 0 mm | - | - | - |
| 1777891593 | 11.11° C | 50% | 1009.8 hPa | 0 mm | - | - | - |
| 1777891289 | 11.11° C | 50% | 1009.8 hPa | 0 mm | - | - | - |
| 1777890983 | 11.11° C | 49% | 1009.5 hPa | 0 mm | - | - | - |
| 1777890678 | 11.67° C | 50% | 1009.7 hPa | 0 mm | - | - | - |
| 1777890374 | 12.22° C | 46% | 1009.5 hPa | 0 mm | - | - | - |
| 1777890070 | 11.67° C | 47% | 1009.7 hPa | 0 mm | - | - | - |
| 1777889768 | 11.67° C | 48% | 1009.8 hPa | 0 mm | - | - | - |
| 1777889466 | 11.11° C | 49% | 1010 hPa | 0 mm | - | - | - |
* Rain latest hour (hover to see other rain measurements)
** Current wind speed in m/s (hover to see current wind gust speed)